sensor_id;sensor_type;location;lat;lon;timestamp;pressure;altitude;pressure_sealevel;temperature;humidity
61963;BME280;47927;42.646;23.096;2023-02-22T00:00:49;92128.53;;;7.06;45.13
61963;BME280;47927;42.646;23.096;2023-02-22T00:03:20;92128.56;;;6.74;46.21
61963;BME280;47927;42.646;23.096;2023-02-22T00:06:03;92122.13;;;6.68;46.36
61963;BME280;47927;42.646;23.096;2023-02-22T00:08:32;92127.31;;;6.68;46.19
61963;BME280;47927;42.646;23.096;2023-02-22T00:11:06;92122.56;;;6.38;47.13
61963;BME280;47927;42.646;23.096;2023-02-22T00:13:36;92124.94;;;6.00;48.00
61963;BME280;47927;42.646;23.096;2023-02-22T00:16:02;92110.00;;;6.09;47.81
61963;BME280;47927;42.646;23.096;2023-02-22T00:18:28;92120.97;;;6.34;47.31
61963;BME280;47927;42.646;23.096;2023-02-22T00:20:58;92122.56;;;6.23;47.65
61963;BME280;47927;42.646;23.096;2023-02-22T00:23:26;92098.53;;;6.22;47.15
61963;BME280;47927;42.646;23.096;2023-02-22T00:25:53;92124.41;;;6.38;47.13
61963;BME280;47927;42.646;23.096;2023-02-22T00:28:19;92124.47;;;6.26;47.45
61963;BME280;47927;42.646;23.096;2023-02-22T00:30:45;92117.47;;;6.26;47.81
61963;BME280;47927;42.646;23.096;2023-02-22T00:33:13;92117.88;;;6.28;47.60
61963;BME280;47927;42.646;23.096;2023-02-22T00:35:40;92112.88;;;6.51;46.97
61963;BME280;47927;42.646;23.096;2023-02-22T00:38:11;92111.88;;;6.56;46.51
61963;BME280;47927;42.646;23.096;2023-02-22T00:40:38;92093.19;;;6.31;46.85
61963;BME280;47927;42.646;23.096;2023-02-22T00:43:23;92109.94;;;6.21;47.70
61963;BME280;47927;42.646;23.096;2023-02-22T00:45:49;92112.78;;;5.88;48.52
61963;BME280;47927;42.646;23.096;2023-02-22T00:48:16;92112.22;;;5.66;49.05
61963;BME280;47927;42.646;23.096;2023-02-22T00:50:42;92106.97;;;5.63;48.97
61963;BME280;47927;42.646;23.096;2023-02-22T00:53:09;92115.25;;;5.97;48.44
61963;BME280;47927;42.646;23.096;2023-02-22T00:55:37;92097.44;;;6.07;47.82
61963;BME280;47927;42.646;23.096;2023-02-22T00:58:04;92109.81;;;6.46;46.84
61963;BME280;47927;42.646;23.096;2023-02-22T01:00:36;92100.75;;;6.24;47.14
61963;BME280;47927;42.646;23.096;2023-02-22T01:03:04;92082.16;;;6.18;47.24
61963;BME280;47927;42.646;23.096;2023-02-22T01:05:31;92088.69;;;6.44;46.69
61963;BME280;47927;42.646;23.096;2023-02-22T01:07:59;92100.53;;;6.29;47.37
61963;BME280;47927;42.646;23.096;2023-02-22T01:10:28;92094.28;;;6.46;46.98
61963;BME280;47927;42.646;23.096;2023-02-22T01:12:54;92095.84;;;6.50;46.34
61963;BME280;47927;42.646;23.096;2023-02-22T01:15:22;92089.09;;;6.14;47.38
61963;BME280;47927;42.646;23.096;2023-02-22T01:17:50;92092.41;;;5.99;48.19
61963;BME280;47927;42.646;23.096;2023-02-22T01:20:16;92087.91;;;6.11;47.67
61963;BME280;47927;42.646;23.096;2023-02-22T01:22:45;92084.91;;;6.09;47.79
61963;BME280;47927;42.646;23.096;2023-02-22T01:25:14;92085.44;;;5.87;48.56
61963;BME280;47927;42.646;23.096;2023-02-22T01:27:40;92086.25;;;5.75;49.09
61963;BME280;47927;42.646;23.096;2023-02-22T01:30:06;92087.34;;;5.74;49.01
61963;BME280;47927;42.646;23.096;2023-02-22T01:32:35;92086.56;;;6.02;48.44
61963;BME280;47927;42.646;23.096;2023-02-22T01:35:01;92081.06;;;6.03;47.95
61963;BME280;47927;42.646;23.096;2023-02-22T01:37:30;92080.06;;;6.08;47.75
61963;BME280;47927;42.646;23.096;2023-02-22T01:39:56;92079.88;;;6.01;47.93
61963;BME280;47927;42.646;23.096;2023-02-22T01:42:21;92080.47;;;5.94;48.26
61963;BME280;47927;42.646;23.096;2023-02-22T01:47:53;92079.47;;;5.99;47.64
61963;BME280;47927;42.646;23.096;2023-02-22T01:50:20;92082.16;;;5.74;48.36
61963;BME280;47927;42.646;23.096;2023-02-22T01:52:46;92088.03;;;5.59;49.00
61963;BME280;47927;42.646;23.096;2023-02-22T01:55:11;92097.56;;;5.70;48.49
61963;BME280;47927;42.646;23.096;2023-02-22T01:57:37;92087.56;;;5.69;48.20
61963;BME280;47927;42.646;23.096;2023-02-22T02:00:08;92078.72;;;5.70;48.20
61963;BME280;47927;42.646;23.096;2023-02-22T02:02:43;92084.41;;;5.76;48.38
61963;BME280;47927;42.646;23.096;2023-02-22T02:05:09;92090.28;;;5.60;48.94
61963;BME280;47927;42.646;23.096;2023-02-22T02:07:36;92065.69;;;5.51;48.81
61963;BME280;47927;42.646;23.096;2023-02-22T02:10:06;92083.81;;;5.26;49.99
61963;BME280;47927;42.646;23.096;2023-02-22T02:12:34;92078.28;;;4.99;50.98
61963;BME280;47927;42.646;23.096;2023-02-22T02:17:49;92079.31;;;5.23;50.39
61963;BME280;47927;42.646;23.096;2023-02-22T02:26:23;92075.41;;;5.41;49.78
61963;BME280;47927;42.646;23.096;2023-02-22T02:35:11;92081.38;;;5.30;49.91
61963;BME280;47927;42.646;23.096;2023-02-22T02:43:24;92082.97;;;5.62;48.56
61963;BME280;47927;42.646;23.096;2023-02-22T02:45:54;92087.00;;;5.47;49.26
61963;BME280;47927;42.646;23.096;2023-02-22T02:48:25;92089.63;;;5.63;48.35
61963;BME280;47927;42.646;23.096;2023-02-22T02:50:54;92094.06;;;5.63;48.43
61963;BME280;47927;42.646;23.096;2023-02-22T02:53:26;92086.00;;;5.52;48.50
61963;BME280;47927;42.646;23.096;2023-02-22T02:55:58;92086.66;;;5.49;49.02
61963;BME280;47927;42.646;23.096;2023-02-22T02:58:25;92086.97;;;5.60;48.11
61963;BME280;47927;42.646;23.096;2023-02-22T03:00:56;92093.44;;;5.54;48.45
61963;BME280;47927;42.646;23.096;2023-02-22T03:08:55;92084.56;;;5.39;48.78
61963;BME280;47927;42.646;23.096;2023-02-22T03:11:27;92093.94;;;5.31;49.19
61963;BME280;47927;42.646;23.096;2023-02-22T03:14:10;92089.72;;;5.39;48.92
61963;BME280;47927;42.646;23.096;2023-02-22T03:16:50;92073.41;;;5.22;48.98
61963;BME280;47927;42.646;23.096;2023-02-22T03:19:36;92097.41;;;5.23;49.55
61963;BME280;47927;42.646;23.096;2023-02-22T03:22:15;92097.84;;;5.13;49.46
61963;BME280;47927;42.646;23.096;2023-02-22T03:25:00;92102.72;;;5.02;49.95
61963;BME280;47927;42.646;23.096;2023-02-22T03:27:53;92100.13;;;5.02;50.31
61963;BME280;47927;42.646;23.096;2023-02-22T03:30:30;92104.09;;;4.99;50.93
61963;BME280;47927;42.646;23.096;2023-02-22T03:36:15;92101.66;;;5.03;50.13
61963;BME280;47927;42.646;23.096;2023-02-22T03:38:44;92104.09;;;4.99;49.91
61963;BME280;47927;42.646;23.096;2023-02-22T03:41:14;92098.00;;;4.92;50.24
61963;BME280;47927;42.646;23.096;2023-02-22T03:43:45;92097.66;;;4.93;50.09
61963;BME280;47927;42.646;23.096;2023-02-22T03:46:15;92102.19;;;4.96;50.05
61963;BME280;47927;42.646;23.096;2023-02-22T03:48:48;92097.88;;;5.00;50.14
61963;BME280;47927;42.646;23.096;2023-02-22T03:51:16;92101.53;;;4.99;50.33
61963;BME280;47927;42.646;23.096;2023-02-22T03:53:43;92105.97;;;4.87;50.60
61963;BME280;47927;42.646;23.096;2023-02-22T03:56:14;92104.78;;;4.84;51.11
61963;BME280;47927;42.646;23.096;2023-02-22T03:58:45;92105.22;;;4.86;51.19
61963;BME280;47927;42.646;23.096;2023-02-22T04:01:15;92105.22;;;4.74;52.10
61963;BME280;47927;42.646;23.096;2023-02-22T04:03:41;92104.13;;;4.75;51.78
61963;BME280;47927;42.646;23.096;2023-02-22T04:06:27;92084.34;;;4.67;51.81
61963;BME280;47927;42.646;23.096;2023-02-22T04:08:53;92091.34;;;4.91;50.84
61963;BME280;47927;42.646;23.096;2023-02-22T04:11:20;92102.97;;;4.97;51.45
61963;BME280;47927;42.646;23.096;2023-02-22T04:13:45;92100.50;;;4.76;51.96
61963;BME280;47927;42.646;23.096;2023-02-22T04:16:11;92104.47;;;4.49;52.91
61963;BME280;47927;42.646;23.096;2023-02-22T04:18:37;92101.13;;;4.48;53.20
61963;BME280;47927;42.646;23.096;2023-02-22T04:21:04;92104.25;;;4.66;52.79
61963;BME280;47927;42.646;23.096;2023-02-22T04:23:37;92095.97;;;4.85;51.70
61963;BME280;47927;42.646;23.096;2023-02-22T04:26:03;92086.94;;;4.67;52.57
61963;BME280;47927;42.646;23.096;2023-02-22T04:28:29;92104.16;;;4.63;52.93
61963;BME280;47927;42.646;23.096;2023-02-22T04:31:24;92097.47;;;4.86;52.65
61963;BME280;47927;42.646;23.096;2023-02-22T04:33:52;92074.81;;;4.67;52.39
61963;BME280;47927;42.646;23.096;2023-02-22T04:36:23;92100.91;;;4.90;52.26
61963;BME280;47927;42.646;23.096;2023-02-22T04:38:48;92101.88;;;4.98;52.03
61963;BME280;47927;42.646;23.096;2023-02-22T04:41:16;92102.97;;;4.72;52.44
61963;BME280;47927;42.646;23.096;2023-02-22T04:43:41;92107.06;;;4.61;53.33
61963;BME280;47927;42.646;23.096;2023-02-22T04:46:15;92097.69;;;4.69;52.91
61963;BME280;47927;42.646;23.096;2023-02-22T04:48:40;92097.47;;;4.86;52.48
61963;BME280;47927;42.646;23.096;2023-02-22T04:51:06;92096.16;;;5.05;51.56
61963;BME280;47927;42.646;23.096;2023-02-22T04:53:34;92100.03;;;4.98;51.47
61963;BME280;47927;42.646;23.096;2023-02-22T04:55:59;92095.97;;;4.85;51.91
61963;BME280;47927;42.646;23.096;2023-02-22T04:58:26;92092.44;;;4.65;52.95
61963;BME280;47927;42.646;23.096;2023-02-22T05:00:52;92097.78;;;4.72;52.77
61963;BME280;47927;42.646;23.096;2023-02-22T05:03:18;92078.34;;;4.75;52.62
61963;BME280;47927;42.646;23.096;2023-02-22T05:05:44;92080.34;;;5.06;50.93
61963;BME280;47927;42.646;23.096;2023-02-22T05:08:09;92088.44;;;4.92;51.44
61963;BME280;47927;42.646;23.096;2023-02-22T05:10:35;92092.84;;;4.92;51.83
61963;BME280;47927;42.646;23.096;2023-02-22T05:13:00;92090.66;;;5.06;51.04
61963;BME280;47927;42.646;23.096;2023-02-22T05:15:26;92099.19;;;4.94;51.42
61963;BME280;47927;42.646;23.096;2023-02-22T05:17:52;92091.13;;;4.84;51.56
61963;BME280;47927;42.646;23.096;2023-02-22T05:20:25;92106.94;;;4.82;52.24
61963;BME280;47927;42.646;23.096;2023-02-22T05:22:56;92102.19;;;4.96;51.85
61963;BME280;47927;42.646;23.096;2023-02-22T05:25:23;92100.53;;;5.16;51.37
61963;BME280;47927;42.646;23.096;2023-02-22T05:27:53;92105.72;;;5.04;51.52
61963;BME280;47927;42.646;23.096;2023-02-22T05:30:25;92102.59;;;5.11;51.52
61963;BME280;47927;42.646;23.096;2023-02-22T05:32:52;92110.69;;;5.09;51.38
61963;BME280;47927;42.646;23.096;2023-02-22T05:35:19;92111.63;;;5.17;51.38
61963;BME280;47927;42.646;23.096;2023-02-22T05:37:45;92110.97;;;5.20;50.48
61963;BME280;47927;42.646;23.096;2023-02-22T05:40:11;92115.81;;;5.21;51.31
61963;BME280;47927;42.646;23.096;2023-02-22T05:42:40;92113.09;;;7.29;48.19
61963;BME280;47927;42.646;23.096;2023-02-22T05:45:06;92117.53;;;10.26;42.01
61963;BME280;47927;42.646;23.096;2023-02-22T05:47:32;92124.06;;;12.69;36.81
61963;BME280;47927;42.646;23.096;2023-02-22T05:49:57;92120.63;;;14.53;32.14
61963;BME280;47927;42.646;23.096;2023-02-22T05:52:23;92118.72;;;15.85;30.61
61963;BME280;47927;42.646;23.096;2023-02-22T05:54:49;92122.00;;;17.08;28.84
61963;BME280;47927;42.646;23.096;2023-02-22T05:57:15;92130.53;;;18.39;26.77
61963;BME280;47927;42.646;23.096;2023-02-22T05:59:41;92131.59;;;19.44;25.13
61963;BME280;47927;42.646;23.096;2023-02-22T06:02:08;92138.00;;;20.46;24.33
61963;BME280;47927;42.646;23.096;2023-02-22T06:04:33;92112.50;;;21.04;23.34
61963;BME280;47927;42.646;23.096;2023-02-22T06:06:59;92130.13;;;22.02;21.91
61963;BME280;47927;42.646;23.096;2023-02-22T06:09:24;92140.09;;;22.64;21.68
61963;BME280;47927;42.646;23.096;2023-02-22T06:11:50;92146.38;;;23.29;20.96
61963;BME280;47927;42.646;23.096;2023-02-22T06:14:16;92139.66;;;24.20;19.73
61963;BME280;47927;42.646;23.096;2023-02-22T06:16:42;92145.97;;;25.01;19.11
61963;BME280;47927;42.646;23.096;2023-02-22T06:19:07;92154.25;;;25.61;18.54
61963;BME280;47927;42.646;23.096;2023-02-22T06:21:33;92141.34;;;26.07;17.78
61963;BME280;47927;42.646;23.096;2023-02-22T06:23:58;92147.09;;;26.45;17.41
61963;BME280;47927;42.646;23.096;2023-02-22T06:26:25;92149.50;;;26.87;16.63
61963;BME280;47927;42.646;23.096;2023-02-22T06:28:51;92152.91;;;27.38;16.34
61963;BME280;47927;42.646;23.096;2023-02-22T06:31:18;92160.50;;;28.01;15.72
61963;BME280;47927;42.646;23.096;2023-02-22T06:33:43;92153.44;;;27.98;15.78
61963;BME280;47927;42.646;23.096;2023-02-22T06:36:09;92147.38;;;28.49;15.28
61963;BME280;47927;42.646;23.096;2023-02-22T06:38:35;92154.09;;;28.97;15.37
61963;BME280;47927;42.646;23.096;2023-02-22T06:41:01;92151.41;;;28.97;15.39
61963;BME280;47927;42.646;23.096;2023-02-22T06:43:27;92158.84;;;29.45;14.53
61963;BME280;47927;42.646;23.096;2023-02-22T06:45:52;92153.31;;;30.19;14.18
61963;BME280;47927;42.646;23.096;2023-02-22T06:48:18;92155.81;;;30.46;13.97
61963;BME280;47927;42.646;23.096;2023-02-22T06:50:43;92156.09;;;30.70;13.76
61963;BME280;47927;42.646;23.096;2023-02-22T06:53:09;92162.97;;;31.05;13.69
61963;BME280;47927;42.646;23.096;2023-02-22T06:55:35;92147.78;;;31.02;13.20
61963;BME280;47927;42.646;23.096;2023-02-22T06:58:01;92158.31;;;31.45;12.66
61963;BME280;47927;42.646;23.096;2023-02-22T07:00:28;92157.94;;;31.76;12.84
61963;BME280;47927;42.646;23.096;2023-02-22T07:02:56;92163.69;;;31.39;12.39
61963;BME280;47927;42.646;23.096;2023-02-22T07:05:23;92168.63;;;32.10;12.37
61963;BME280;47927;42.646;23.096;2023-02-22T07:07:53;92164.16;;;32.18;11.69
61963;BME280;47927;42.646;23.096;2023-02-22T07:10:22;92167.22;;;31.87;12.04
61963;BME280;47927;42.646;23.096;2023-02-22T07:12:49;92163.31;;;31.88;11.50
61963;BME280;47927;42.646;23.096;2023-02-22T07:15:17;92156.72;;;32.36;11.64
61963;BME280;47927;42.646;23.096;2023-02-22T07:17:46;92159.97;;;32.29;11.53
61963;BME280;47927;42.646;23.096;2023-02-22T07:20:11;92150.22;;;31.11;12.45
61963;BME280;47927;42.646;23.096;2023-02-22T07:22:38;92151.97;;;31.08;12.02
61963;BME280;47927;42.646;23.096;2023-02-22T07:25:07;92147.41;;;31.84;11.51
61963;BME280;47927;42.646;23.096;2023-02-22T07:27:40;92148.88;;;31.79;12.07
61963;BME280;47927;42.646;23.096;2023-02-22T07:30:07;92153.28;;;31.83;12.00
61963;BME280;47927;42.646;23.096;2023-02-22T07:32:41;92155.31;;;32.71;11.53
61963;BME280;47927;42.646;23.096;2023-02-22T07:35:16;92138.56;;;32.78;11.39
61963;BME280;47927;42.646;23.096;2023-02-22T07:37:42;92157.63;;;32.55;11.26
61963;BME280;47927;42.646;23.096;2023-02-22T07:40:08;92156.56;;;32.22;11.71
61963;BME280;47927;42.646;23.096;2023-02-22T07:45:44;92147.53;;;31.28;12.23
61963;BME280;47927;42.646;23.096;2023-02-22T07:48:11;92152.63;;;30.41;12.87
61963;BME280;47927;42.646;23.096;2023-02-22T07:50:38;92148.75;;;31.32;12.35
61963;BME280;47927;42.646;23.096;2023-02-22T07:53:06;92150.69;;;31.49;11.86
61963;BME280;47927;42.646;23.096;2023-02-22T07:55:33;92150.94;;;31.45;11.64
61963;BME280;47927;42.646;23.096;2023-02-22T07:58:00;92145.44;;;31.79;10.95
61963;BME280;47927;42.646;23.096;2023-02-22T08:00:39;92154.53;;;31.76;11.65
61963;BME280;47927;42.646;23.096;2023-02-22T08:03:09;92148.03;;;31.21;12.27
61963;BME280;47927;42.646;23.096;2023-02-22T08:05:36;92140.16;;;31.34;12.41
61963;BME280;47927;42.646;23.096;2023-02-22T08:08:03;92128.72;;;30.66;13.00
61963;BME280;47927;42.646;23.096;2023-02-22T08:10:32;92141.41;;;30.60;12.49
61963;BME280;47927;42.646;23.096;2023-02-22T08:12:58;92138.53;;;30.80;12.32
61963;BME280;47927;42.646;23.096;2023-02-22T08:15:26;92140.66;;;31.44;12.29
61963;BME280;47927;42.646;23.096;2023-02-22T08:17:57;92131.72;;;31.94;11.75
61963;BME280;47927;42.646;23.096;2023-02-22T08:20:23;92149.59;;;31.91;12.11
61963;BME280;47927;42.646;23.096;2023-02-22T08:22:50;92150.81;;;31.85;12.04
61963;BME280;47927;42.646;23.096;2023-02-22T08:25:17;92144.09;;;32.19;11.58
61963;BME280;47927;42.646;23.096;2023-02-22T08:27:43;92140.09;;;32.32;11.37
61963;BME280;47927;42.646;23.096;2023-02-22T08:30:17;92137.66;;;32.28;12.14
61963;BME280;47927;42.646;23.096;2023-02-22T08:32:45;92129.25;;;31.96;11.70
61963;BME280;47927;42.646;23.096;2023-02-22T08:35:12;92136.41;;;31.76;12.53
61963;BME280;47927;42.646;23.096;2023-02-22T08:37:48;92142.56;;;31.71;11.79
61963;BME280;47927;42.646;23.096;2023-02-22T08:40:17;92138.13;;;30.05;13.15
61963;BME280;47927;42.646;23.096;2023-02-22T08:42:43;92127.38;;;29.08;14.32
61963;BME280;47927;42.646;23.096;2023-02-22T08:45:10;92139.34;;;29.98;13.83
61963;BME280;47927;42.646;23.096;2023-02-22T08:47:37;92116.44;;;29.55;13.97
61963;BME280;47927;42.646;23.096;2023-02-22T08:50:03;92123.63;;;28.62;14.75
61963;BME280;47927;42.646;23.096;2023-02-22T08:52:29;92125.28;;;28.34;14.78
61963;BME280;47927;42.646;23.096;2023-02-22T08:54:54;92125.84;;;29.33;14.23
61963;BME280;47927;42.646;23.096;2023-02-22T08:57:20;92129.69;;;30.63;13.34
61963;BME280;47927;42.646;23.096;2023-02-22T08:59:46;92127.72;;;30.41;13.23
61963;BME280;47927;42.646;23.096;2023-02-22T09:02:17;92125.78;;;30.64;13.02
61963;BME280;47927;42.646;23.096;2023-02-22T09:04:43;92112.94;;;31.66;11.79
61963;BME280;47927;42.646;23.096;2023-02-22T09:07:09;92124.28;;;31.30;12.38
61963;BME280;47927;42.646;23.096;2023-02-22T09:09:35;92106.97;;;31.15;11.85
61963;BME280;47927;42.646;23.096;2023-02-22T09:12:01;92126.41;;;31.66;11.83
61963;BME280;47927;42.646;23.096;2023-02-22T09:14:27;92124.31;;;32.00;11.84
61963;BME280;47927;42.646;23.096;2023-02-22T09:16:52;92123.53;;;32.16;11.68
61963;BME280;47927;42.646;23.096;2023-02-22T09:19:18;92113.41;;;32.70;11.65
61963;BME280;47927;42.646;23.096;2023-02-22T09:21:44;92117.88;;;33.22;11.08
61963;BME280;47927;42.646;23.096;2023-02-22T09:24:09;92113.47;;;33.19;11.35
61963;BME280;47927;42.646;23.096;2023-02-22T09:26:38;92127.28;;;31.96;11.58
61963;BME280;47927;42.646;23.096;2023-02-22T09:29:07;92124.44;;;31.72;11.99
61963;BME280;47927;42.646;23.096;2023-02-22T09:31:39;92123.13;;;30.81;12.53
61963;BME280;47927;42.646;23.096;2023-02-22T09:34:06;92116.22;;;30.52;12.95
61963;BME280;47927;42.646;23.096;2023-02-22T09:36:41;92109.75;;;29.33;13.66
61963;BME280;47927;42.646;23.096;2023-02-22T09:39:08;92117.59;;;29.96;13.28
61963;BME280;47927;42.646;23.096;2023-02-22T09:46:44;92095.78;;;28.54;13.98
61963;BME280;47927;42.646;23.096;2023-02-22T09:51:45;92112.97;;;28.42;14.13
61963;BME280;47927;42.646;23.096;2023-02-22T09:54:40;92113.91;;;28.39;13.85
61963;BME280;47927;42.646;23.096;2023-02-22T09:57:32;92107.19;;;28.81;14.26
61963;BME280;47927;42.646;23.096;2023-02-22T10:00:16;92110.81;;;28.78;14.35
61963;BME280;47927;42.646;23.096;2023-02-22T10:02:53;92102.91;;;29.32;13.67
61963;BME280;47927;42.646;23.096;2023-02-22T10:05:26;92100.44;;;28.91;13.73
61963;BME280;47927;42.646;23.096;2023-02-22T10:07:57;92096.13;;;27.89;14.37
61963;BME280;47927;42.646;23.096;2023-02-22T10:10:27;92094.75;;;28.46;14.18
61963;BME280;47927;42.646;23.096;2023-02-22T10:13:24;92094.38;;;28.33;14.43
61963;BME280;47927;42.646;23.096;2023-02-22T10:21:31;92073.53;;;28.43;14.68
61963;BME280;47927;42.646;23.096;2023-02-22T10:30:06;92065.53;;;27.96;15.04
61963;BME280;47927;42.646;23.096;2023-02-22T10:32:42;92062.75;;;27.85;14.51
61963;BME280;47927;42.646;23.096;2023-02-22T10:35:19;92048.81;;;28.33;13.75
61963;BME280;47927;42.646;23.096;2023-02-22T10:37:45;92048.22;;;28.17;14.05
61963;BME280;47927;42.646;23.096;2023-02-22T10:40:17;92045.56;;;27.30;14.32
61963;BME280;47927;42.646;23.096;2023-02-22T10:42:44;92037.16;;;26.81;15.53
61963;BME280;47927;42.646;23.096;2023-02-22T10:45:22;92033.25;;;26.32;16.05
61963;BME280;47927;42.646;23.096;2023-02-22T10:47:50;92035.34;;;26.73;15.53
61963;BME280;47927;42.646;23.096;2023-02-22T10:50:18;92036.47;;;27.01;15.29
61963;BME280;47927;42.646;23.096;2023-02-22T10:52:45;92037.44;;;26.04;16.07
61963;BME280;47927;42.646;23.096;2023-02-22T10:55:13;92026.91;;;25.71;15.72
61963;BME280;47927;42.646;23.096;2023-02-22T10:57:39;92019.78;;;24.81;16.68
61963;BME280;47927;42.646;23.096;2023-02-22T11:00:33;92023.09;;;24.42;17.87
61963;BME280;47927;42.646;23.096;2023-02-22T11:03:19;92007.91;;;25.15;17.30
61963;BME280;47927;42.646;23.096;2023-02-22T11:05:45;91992.00;;;23.97;17.44
61963;BME280;47927;42.646;23.096;2023-02-22T11:10:51;92014.81;;;24.31;17.97
61963;BME280;47927;42.646;23.096;2023-02-22T11:15:59;92021.22;;;24.67;17.03
61963;BME280;47927;42.646;23.096;2023-02-22T11:18:34;92006.44;;;24.56;17.03
61963;BME280;47927;42.646;23.096;2023-02-22T11:21:06;92008.88;;;24.45;17.52
61963;BME280;47927;42.646;23.096;2023-02-22T11:23:33;92004.75;;;24.35;17.59
61963;BME280;47927;42.646;23.096;2023-02-22T11:26:13;92005.41;;;24.87;17.35
61963;BME280;47927;42.646;23.096;2023-02-22T11:28:43;91994.16;;;25.07;17.15
61963;BME280;47927;42.646;23.096;2023-02-22T11:31:19;91972.97;;;24.65;16.76
61963;BME280;47927;42.646;23.096;2023-02-22T11:33:52;91981.38;;;24.72;16.79
61963;BME280;47927;42.646;23.096;2023-02-22T11:36:31;91982.66;;;24.10;17.64
61963;BME280;47927;42.646;23.096;2023-02-22T11:38:58;91979.22;;;23.40;17.83
61963;BME280;47927;42.646;23.096;2023-02-22T11:41:30;91959.44;;;23.32;18.57
61963;BME280;47927;42.646;23.096;2023-02-22T11:44:13;91978.63;;;23.63;18.07
61963;BME280;47927;42.646;23.096;2023-02-22T11:46:45;91972.16;;;23.18;18.58
61963;BME280;47927;42.646;23.096;2023-02-22T11:49:12;91964.44;;;22.93;18.32
61963;BME280;47927;42.646;23.096;2023-02-22T11:52:02;91971.56;;;22.96;18.84
61963;BME280;47927;42.646;23.096;2023-02-22T11:57:14;91967.25;;;22.21;20.06
61963;BME280;47927;42.646;23.096;2023-02-22T12:05:21;91955.97;;;22.48;19.21
61963;BME280;47927;42.646;23.096;2023-02-22T12:10:59;91956.69;;;21.46;20.65
61963;BME280;47927;42.646;23.096;2023-02-22T12:13:42;91949.28;;;21.41;21.30
61963;BME280;47927;42.646;23.096;2023-02-22T12:21:35;91945.81;;;20.27;23.15
61963;BME280;47927;42.646;23.096;2023-02-22T12:24:20;91938.22;;;20.99;22.24
61963;BME280;47927;42.646;23.096;2023-02-22T12:26:54;91943.47;;;20.89;22.42
61963;BME280;47927;42.646;23.096;2023-02-22T12:29:33;91941.81;;;20.70;22.45
61963;BME280;47927;42.646;23.096;2023-02-22T12:35:21;91942.66;;;20.67;22.79
61963;BME280;47927;42.646;23.096;2023-02-22T12:49:02;91916.75;;;20.49;22.71
61963;BME280;47927;42.646;23.096;2023-02-22T12:51:42;91914.28;;;20.80;22.49
61963;BME280;47927;42.646;23.096;2023-02-22T12:54:20;91915.13;;;20.99;22.20
61963;BME280;47927;42.646;23.096;2023-02-22T13:01:49;91925.19;;;21.26;21.89
61963;BME280;47927;42.646;23.096;2023-02-22T13:04:16;91900.31;;;20.19;22.98
61963;BME280;47927;42.646;23.096;2023-02-22T13:06:53;91911.66;;;19.69;23.68
61963;BME280;47927;42.646;23.096;2023-02-22T13:12:20;91910.72;;;19.21;24.12
61963;BME280;47927;42.646;23.096;2023-02-22T13:15:03;91912.34;;;19.56;23.85
61963;BME280;47927;42.646;23.096;2023-02-22T13:22:51;91906.59;;;20.47;23.10
61963;BME280;47927;42.646;23.096;2023-02-22T13:25:38;91908.50;;;19.99;23.66
61963;BME280;47927;42.646;23.096;2023-02-22T13:31:44;91905.06;;;20.24;23.16
61963;BME280;47927;42.646;23.096;2023-02-22T13:40:44;91906.50;;;19.36;24.57
61963;BME280;47927;42.646;23.096;2023-02-22T13:49:04;91897.59;;;19.97;23.47
61963;BME280;47927;42.646;23.096;2023-02-22T13:51:45;91889.84;;;19.52;24.28
61963;BME280;47927;42.646;23.096;2023-02-22T13:56:51;91894.25;;;19.42;24.44
61963;BME280;47927;42.646;23.096;2023-02-22T13:59:24;91899.16;;;19.02;25.65
61963;BME280;47927;42.646;23.096;2023-02-22T14:01:51;91894.97;;;18.88;26.00
61963;BME280;47927;42.646;23.096;2023-02-22T14:09:55;91881.31;;;18.77;25.37
61963;BME280;47927;42.646;23.096;2023-02-22T14:17:59;91900.69;;;18.08;27.57
61963;BME280;47927;42.646;23.096;2023-02-22T14:20:31;91903.16;;;18.15;27.53
61963;BME280;47927;42.646;23.096;2023-02-22T14:26:11;91902.34;;;17.66;28.16
61963;BME280;47927;42.646;23.096;2023-02-22T14:31:18;91899.72;;;18.18;27.40
61963;BME280;47927;42.646;23.096;2023-02-22T14:37:02;91899.91;;;17.39;29.12
61963;BME280;47927;42.646;23.096;2023-02-22T14:42:05;91892.88;;;17.52;28.46
61963;BME280;47927;42.646;23.096;2023-02-22T14:44:33;91900.03;;;18.04;27.56
61963;BME280;47927;42.646;23.096;2023-02-22T14:47:03;91884.84;;;17.75;28.41
61963;BME280;47927;42.646;23.096;2023-02-22T14:49:34;91898.06;;;17.92;28.50
61963;BME280;47927;42.646;23.096;2023-02-22T14:52:10;91827.00;;;17.36;28.89
61963;BME280;47927;42.646;23.096;2023-02-22T14:54:59;91899.06;;;16.85;30.29
61963;BME280;47927;42.646;23.096;2023-02-22T14:57:31;91899.63;;;17.53;29.06
61963;BME280;47927;42.646;23.096;2023-02-22T15:02:48;91899.53;;;17.40;29.15
61963;BME280;47927;42.646;23.096;2023-02-22T15:05:16;91895.69;;;17.61;28.74
61963;BME280;47927;42.646;23.096;2023-02-22T15:08:02;91892.31;;;17.24;29.26
61963;BME280;47927;42.646;23.096;2023-02-22T15:10:30;91894.19;;;17.24;29.40
61963;BME280;47927;42.646;23.096;2023-02-22T15:13:05;91894.81;;;17.31;29.48
61963;BME280;47927;42.646;23.096;2023-02-22T15:20:56;91904.00;;;17.03;29.74
61963;BME280;47927;42.646;23.096;2023-02-22T15:23:24;91904.28;;;17.09;30.20
61963;BME280;47927;42.646;23.096;2023-02-22T15:25:51;91904.41;;;16.82;29.99
61963;BME280;47927;42.646;23.096;2023-02-22T15:28:17;91903.53;;;16.65;30.33
61963;BME280;47927;42.646;23.096;2023-02-22T15:30:43;91880.72;;;16.82;29.71
61963;BME280;47927;42.646;23.096;2023-02-22T15:33:19;91910.97;;;17.14;29.51
61963;BME280;47927;42.646;23.096;2023-02-22T15:35:55;91908.81;;;17.08;29.80
61963;BME280;47927;42.646;23.096;2023-02-22T15:38:27;91901.97;;;16.91;30.23
61963;BME280;47927;42.646;23.096;2023-02-22T15:41:05;91910.06;;;16.80;30.10
61963;BME280;47927;42.646;23.096;2023-02-22T15:43:33;91908.38;;;16.47;30.80